createdAt,value
2019-05-06T00:00:59.787Z,98711.11
2019-05-06T00:03:27.425Z,98718.77
2019-05-06T00:05:54.967Z,98715.13
2019-05-06T00:08:23.639Z,98715.02
2019-05-06T00:10:51.346Z,98715.63
2019-05-06T00:13:18.837Z,98719.31
2019-05-06T00:15:46.333Z,98722.03
2019-05-06T00:18:13.995Z,98716.19
2019-05-06T00:20:43.847Z,98710.20
2019-05-06T00:23:27.960Z,98715.23
2019-05-06T00:25:57.101Z,98708.97
2019-05-06T00:28:44.697Z,98707.23
2019-05-06T00:31:16.555Z,98709.72
2019-05-06T00:33:44.404Z,98713.69
2019-05-06T00:36:14.028Z,98713.28
2019-05-06T00:38:44.767Z,98711.45
2019-05-06T00:41:14.409Z,98707.10
2019-05-06T00:43:43.693Z,98708.80
2019-05-06T00:46:13.768Z,98704.56
2019-05-06T00:48:40.972Z,98704.06
2019-05-06T00:51:08.476Z,98704.20
2019-05-06T00:53:38.381Z,98700.66
2019-05-06T00:56:05.885Z,98705.57
2019-05-06T00:58:34.791Z,98698.73
2019-05-06T01:01:04.703Z,98698.52
2019-05-06T01:03:34.510Z,98697.53
2019-05-06T01:06:03.729Z,98697.26
2019-05-06T01:08:30.545Z,98700.73
2019-05-06T01:10:58.033Z,98697.09
2019-05-06T01:13:27.173Z,98705.34
2019-05-06T01:15:54.835Z,98701.95
2019-05-06T01:18:24.380Z,98706.69
2019-05-06T01:20:54.157Z,98704.35
2019-05-06T01:23:23.461Z,98701.19
2019-05-06T01:25:51.232Z,98701.03
2019-05-06T01:28:18.729Z,98700.77
2019-05-06T01:30:46.216Z,98701.75
2019-05-06T01:33:14.637Z,98696.54
2019-05-06T01:35:44.334Z,98697.54
2019-05-06T01:38:29.802Z,98703.53
2019-05-06T01:41:01.632Z,98705.42
2019-05-06T01:43:31.539Z,98704.58
2019-05-06T01:45:59.032Z,98705.66
2019-05-06T01:48:37.349Z,98703.69
2019-05-06T01:51:04.839Z,98704.92
2019-05-06T01:53:33.889Z,98709.80
2019-05-06T01:56:03.587Z,98707.70
2019-05-06T01:58:33.446Z,98707.11
2019-05-06T02:01:00.723Z,98713.89
2019-05-06T02:03:28.275Z,98713.20
2019-05-06T02:05:55.768Z,98711.63
2019-05-06T02:08:24.457Z,98707.83
2019-05-06T02:10:54.540Z,98715.66
2019-05-06T02:13:23.796Z,98717.50
2019-05-06T02:15:51.218Z,98710.95
2019-05-06T02:18:19.983Z,98719.67
2019-05-06T02:20:49.288Z,98715.47
2019-05-06T02:23:20.899Z,98718.69
2019-05-06T02:25:50.037Z,98712.34
2019-05-06T02:28:17.531Z,98715.86
2019-05-06T02:31:01.693Z,98719.83
2019-05-06T02:33:40.845Z,98718.27
2019-05-06T02:36:15.809Z,98719.81
2019-05-06T02:38:47.984Z,98714.33
2019-05-06T02:41:13.574Z,98717.00
2019-05-06T02:43:43.475Z,98710.56
2019-05-06T02:46:12.880Z,98713.89
2019-05-06T02:48:43.247Z,98703.26
2019-05-06T02:51:13.502Z,98710.31
2019-05-06T02:53:42.871Z,98707.27
2019-05-06T02:56:13.226Z,98707.27
2019-05-06T02:58:39.616Z,98706.57
2019-05-06T03:01:07.582Z,98706.14
2019-05-06T03:03:35.105Z,98706.21
2019-05-06T03:06:03.873Z,98706.63
2019-05-06T03:08:32.910Z,98702.26
2019-05-06T03:11:03.642Z,98711.09
2019-05-06T03:13:29.827Z,98709.45
2019-05-06T03:15:57.317Z,98709.10
2019-05-06T03:18:24.821Z,98712.77
2019-05-06T03:20:54.215Z,98712.77
2019-05-06T03:23:28.904Z,98708.31
2019-05-06T03:25:56.398Z,98712.45
2019-05-06T03:28:23.902Z,98709.37
2019-05-06T03:30:55.929Z,98706.03
2019-05-06T03:33:40.316Z,98696.70
2019-05-06T03:36:06.032Z,98705.84
2019-05-06T03:38:22.719Z,98704.99
2019-05-06T03:40:49.611Z,98696.08
2019-05-06T03:43:17.117Z,98700.52
2019-05-06T03:46:04.663Z,98700.45
2019-05-06T03:48:33.931Z,98696.44
2019-05-06T03:51:04.172Z,98696.36
2019-05-06T03:53:33.298Z,98697.39
2019-05-06T03:56:03.406Z,98699.94
2019-05-06T03:58:30.402Z,98697.45
2019-05-06T04:00:58.409Z,98694.66
2019-05-06T04:03:42.509Z,98701.55
2019-05-06T04:05:55.933Z,98702.45
2019-05-06T04:08:24.411Z,98704.34
2019-05-06T04:10:55.047Z,98695.80
2019-05-06T04:13:23.247Z,98703.63
2019-05-06T04:16:08.020Z,98698.43
2019-05-06T04:18:37.173Z,98698.13
2019-05-06T04:21:13.448Z,98703.63
2019-05-06T04:23:44.742Z,98701.67
2019-05-06T04:26:23.929Z,98707.30
2019-05-06T04:28:53.403Z,98701.58
2019-05-06T04:31:22.873Z,98711.23
2019-05-06T04:34:08.381Z,98701.00
2019-05-06T04:36:19.773Z,98705.91
2019-05-06T04:38:47.503Z,98707.07
2019-05-06T04:41:15.006Z,98702.73
2019-05-06T04:43:43.843Z,98707.78
2019-05-06T04:46:13.599Z,98710.46
2019-05-06T04:48:43.361Z,98716.91
2019-05-06T04:51:13.424Z,98716.27
2019-05-06T04:53:39.992Z,98714.97
2019-05-06T04:56:07.497Z,98718.37
2019-05-06T04:58:34.982Z,98721.45
2019-05-06T05:01:04.054Z,98727.07
2019-05-06T05:03:33.618Z,98725.52
2019-05-06T05:06:03.005Z,98730.25
2019-05-06T05:08:36.701Z,98727.55
2019-05-06T05:11:06.412Z,98735.25
2019-05-06T05:13:35.536Z,98729.38
2019-05-06T05:16:13.636Z,98728.89
2019-05-06T05:18:45.658Z,98733.84
2019-05-06T05:21:13.508Z,98734.20
2019-05-06T05:23:42.862Z,98723.45
2019-05-06T05:26:12.077Z,98732.29
2019-05-06T05:28:39.704Z,98729.92
2019-05-06T05:31:07.275Z,98730.59
2019-05-06T05:33:35.106Z,98734.94
2019-05-06T05:36:02.612Z,98735.47
2019-05-06T05:38:32.006Z,98741.48
2019-05-06T05:40:59.497Z,98742.08
2019-05-06T05:43:32.654Z,98743.24
2019-05-06T05:46:00.289Z,98742.45
2019-05-06T05:48:47.704Z,98740.37
2019-05-06T05:51:15.473Z,98746.13
2019-05-06T05:53:42.965Z,98740.34
2019-05-06T05:56:12.355Z,98744.33
2019-05-06T05:58:42.298Z,98744.52
2019-05-06T06:01:09.232Z,98751.18
2019-05-06T06:03:36.723Z,98744.67
2019-05-06T06:06:04.263Z,98745.16
2019-05-06T06:08:32.236Z,98747.97
2019-05-06T06:11:04.426Z,98743.85
2019-05-06T06:13:32.068Z,98748.28
2019-05-06T06:16:07.042Z,98742.77
2019-05-06T06:18:39.601Z,98746.90
2019-05-06T06:21:24.858Z,98732.50
2019-05-06T06:23:49.095Z,98741.02
2019-05-06T06:26:16.696Z,98742.41
2019-05-06T06:28:44.192Z,98738.58
2019-05-06T06:31:13.336Z,98738.46
2019-05-06T06:33:42.852Z,98744.67
2019-05-06T06:36:13.136Z,98745.36
2019-05-06T06:38:48.250Z,98743.87
2019-05-06T06:41:16.045Z,98748.94
2019-05-06T06:43:45.376Z,98752.16
2019-05-06T06:46:12.881Z,98744.22
2019-05-06T06:48:40.373Z,98747.98
2019-05-06T06:51:07.878Z,98740.77
2019-05-06T06:53:35.365Z,98749.41
2019-05-06T06:56:22.016Z,98742.39
2019-05-06T06:59:02.394Z,98738.00
2019-05-06T07:01:33.137Z,98743.61
2019-05-06T07:04:06.798Z,98737.06
2019-05-06T07:06:33.214Z,98734.25
2019-05-06T07:09:02.706Z,98742.87
2019-05-06T07:11:30.293Z,98736.19
2019-05-06T07:13:57.789Z,98742.94
2019-05-06T07:16:25.295Z,98744.27
2019-05-06T07:18:52.845Z,98736.52
2019-05-06T07:21:22.467Z,98736.19
2019-05-06T07:23:50.174Z,98726.03
2019-05-06T07:26:19.582Z,98737.86
2019-05-06T07:28:47.073Z,98737.20
2019-05-06T07:31:21.340Z,98738.70
2019-05-06T07:33:43.781Z,98736.64
2019-05-06T07:36:12.999Z,98732.02
2019-05-06T07:38:42.793Z,98738.34
2019-05-06T07:41:15.433Z,98729.55
2019-05-06T07:43:56.552Z,98737.42
2019-05-06T07:46:28.393Z,98729.14
2019-05-06T07:48:55.880Z,98738.91
2019-05-06T07:51:23.901Z,98732.25
2019-05-06T07:53:52.490Z,98736.04
2019-05-06T07:56:22.293Z,98738.16
2019-05-06T07:58:52.879Z,98736.83
2019-05-06T08:01:25.793Z,98745.81
2019-05-06T08:03:49.741Z,98747.19
2019-05-06T08:06:17.223Z,98744.83
2019-05-06T08:08:44.737Z,98739.55
2019-05-06T08:11:12.580Z,98737.98
2019-05-06T08:13:40.220Z,98739.36
2019-05-06T08:16:08.081Z,98741.77
2019-05-06T08:18:35.588Z,98733.02
2019-05-06T08:21:04.733Z,98729.17
2019-05-06T08:23:34.633Z,98731.98
2019-05-06T08:26:11.610Z,98734.00
2019-05-06T08:28:41.050Z,98730.11
2019-05-06T08:31:02.376Z,98720.48
2019-05-06T08:33:30.078Z,98714.47
2019-05-06T08:36:10.590Z,98718.36
2019-05-06T08:38:28.528Z,98725.16
2019-05-06T08:40:56.017Z,98726.80
2019-05-06T08:43:23.516Z,98720.28
2019-05-06T08:45:52.797Z,98713.08
2019-05-06T08:48:22.021Z,98713.02
2019-05-06T08:50:52.960Z,98717.58
2019-05-06T08:53:24.180Z,98718.02
2019-05-06T08:55:53.050Z,98716.36
2019-05-06T08:58:22.300Z,98716.80
2019-05-06T09:00:53.725Z,98713.11
2019-05-06T09:03:22.310Z,98722.64
2019-05-06T09:05:55.710Z,98710.55
2019-05-06T09:08:23.953Z,98711.97
2019-05-06T09:10:52.160Z,98712.95
2019-05-06T09:13:19.801Z,98711.77
2019-05-06T09:15:47.288Z,98725.41
2019-05-06T09:18:14.793Z,98714.80
2019-05-06T09:20:43.162Z,98721.53
2019-05-06T09:23:12.465Z,98707.37
2019-05-06T09:25:42.330Z,98718.63
2019-05-06T09:28:13.725Z,98712.07
2019-05-06T09:30:45.784Z,98715.29
2019-05-06T09:33:14.923Z,98720.14
2019-05-06T09:35:42.425Z,98714.05
2019-05-06T09:38:12.628Z,98718.16
2019-05-06T09:40:39.388Z,98703.55
2019-05-06T09:43:06.906Z,98705.30
2019-05-06T09:45:34.425Z,98713.83
2019-05-06T09:48:04.322Z,98713.31
2019-05-06T09:50:45.557Z,98715.92
2019-05-06T09:53:13.085Z,98711.51
2019-05-06T09:55:43.054Z,98707.88
2019-05-06T09:58:12.314Z,98718.34
2019-05-06T10:00:42.868Z,98709.69
2019-05-06T10:03:10.689Z,98716.88
2019-05-06T10:05:38.229Z,98705.84
2019-05-06T10:08:06.021Z,98702.42
2019-05-06T10:10:33.557Z,98702.50
2019-05-06T10:13:02.819Z,98695.14
2019-05-06T10:15:32.397Z,98697.19
2019-05-06T10:18:09.564Z,98695.14
2019-05-06T10:20:39.351Z,98691.67
2019-05-06T10:23:06.908Z,98702.58
2019-05-06T10:25:34.435Z,98706.89
2019-05-06T10:28:03.632Z,98698.44
2019-05-06T10:30:33.163Z,98689.96
2019-05-06T10:33:02.146Z,98685.38
2019-05-06T10:35:32.277Z,98686.95
2019-05-06T10:38:17.057Z,98680.45
2019-05-06T10:41:00.042Z,98687.33
2019-05-06T10:43:21.966Z,98700.11
2019-05-06T10:45:49.032Z,98697.38
2019-05-06T10:48:17.298Z,98698.97
2019-05-06T10:50:46.440Z,98697.69
2019-05-06T10:53:15.593Z,98685.09
2019-05-06T10:55:44.716Z,98682.16
2019-05-06T10:58:12.813Z,98675.36
2019-05-06T11:00:42.427Z,98669.84
2019-05-06T11:03:15.154Z,98676.33
2019-05-06T11:05:43.246Z,98676.95
2019-05-06T11:08:10.916Z,98668.31
2019-05-06T11:10:41.524Z,98677.83
2019-05-06T11:13:08.308Z,98674.23
2019-05-06T11:15:35.881Z,98678.84
2019-05-06T11:18:04.835Z,98669.64
2019-05-06T11:20:33.677Z,98670.59
2019-05-06T11:23:02.245Z,98675.40
2019-05-06T11:25:32.126Z,98668.47
2019-05-06T11:27:59.727Z,98675.64
2019-05-06T11:30:37.881Z,98671.78
2019-05-06T11:33:24.012Z,98677.68
2019-05-06T11:35:53.161Z,98673.23
2019-05-06T11:38:22.742Z,98672.66
2019-05-06T11:40:52.694Z,98683.51
2019-05-06T11:43:19.601Z,98669.41
2019-05-06T11:45:47.104Z,98668.83
2019-05-06T11:48:14.757Z,98667.54
2019-05-06T11:50:43.920Z,98665.53
2019-05-06T11:53:12.519Z,98664.77
2019-05-06T11:55:40.212Z,98665.69
2019-05-06T11:58:09.361Z,98650.03
2019-05-06T12:00:44.226Z,98662.95
2019-05-06T12:03:12.665Z,98641.98
2019-05-06T12:05:41.755Z,98651.70
2019-05-06T12:08:08.988Z,98657.02
2019-05-06T12:10:36.497Z,98645.80
2019-05-06T12:13:04.760Z,98646.09
2019-05-06T12:15:32.272Z,98653.55
2019-05-06T12:17:59.773Z,98653.17
2019-05-06T12:20:27.277Z,98647.84
2019-05-06T12:22:55.104Z,98655.80
2019-05-06T12:25:23.802Z,98652.60
2019-05-06T12:27:52.586Z,98654.09
2019-05-06T12:30:23.051Z,98647.60
2019-05-06T12:32:55.400Z,98647.60
2019-05-06T12:35:22.904Z,98641.70
2019-05-06T12:37:53.120Z,98650.22
2019-05-06T12:40:20.869Z,98649.27
2019-05-06T12:42:50.050Z,98639.80
2019-05-06T12:45:32.908Z,98643.14
2019-05-06T12:48:03.056Z,98640.12
2019-05-06T12:50:33.053Z,98642.42
2019-05-06T12:52:59.900Z,98637.91
2019-05-06T12:55:27.411Z,98641.64
2019-05-06T12:57:55.081Z,98635.42
2019-05-06T13:00:23.536Z,98623.02
2019-05-06T13:02:53.042Z,98641.80
2019-05-06T13:05:21.512Z,98647.69
2019-05-06T13:07:49.110Z,98643.22
2019-05-06T13:10:17.889Z,98638.64
2019-05-06T13:12:47.030Z,98645.40
2019-05-06T13:15:14.621Z,98644.93
2019-05-06T13:17:42.635Z,98641.53
2019-05-06T13:20:14.090Z,98651.05
2019-05-06T13:22:44.088Z,98652.08
2019-05-06T13:25:13.532Z,98652.41
2019-05-06T13:27:42.833Z,98657.36
2019-05-06T13:30:10.058Z,98660.36
2019-05-06T13:32:39.536Z,98658.22
2019-05-06T13:35:07.133Z,98653.10
2019-05-06T13:37:34.636Z,98649.92
2019-05-06T13:40:02.462Z,98650.73
2019-05-06T13:42:33.195Z,98648.36
2019-05-06T13:45:02.935Z,98642.72
2019-05-06T13:47:47.483Z,98642.03
2019-05-06T13:50:22.944Z,98640.45
2019-05-06T13:53:07.741Z,98637.52
2019-05-06T13:55:22.084Z,98636.83
2019-05-06T13:57:49.500Z,98626.48
2019-05-06T14:00:17.765Z,98631.26
2019-05-06T14:02:52.898Z,98623.15
2019-05-06T14:05:19.429Z,98625.99
2019-05-06T14:07:47.004Z,98620.34
2019-05-06T14:10:14.617Z,98616.66
2019-05-06T14:12:42.779Z,98621.39
2019-05-06T14:15:12.449Z,98613.98
2019-05-06T14:17:42.185Z,98612.77
2019-05-06T14:20:09.474Z,98609.31
2019-05-06T14:22:37.084Z,98615.45
2019-05-06T14:25:16.304Z,98610.77
2019-05-06T14:27:45.349Z,98606.67
2019-05-06T14:30:14.489Z,98608.18
2019-05-06T14:32:43.231Z,98602.00
2019-05-06T14:35:12.140Z,98601.88
2019-05-06T14:37:41.972Z,98594.10
2019-05-06T14:40:11.907Z,98598.87
2019-05-06T14:42:39.516Z,98600.53
2019-05-06T14:45:07.009Z,98596.58
2019-05-06T14:47:36.828Z,98602.75
2019-05-06T14:50:05.892Z,98613.79
2019-05-06T14:52:33.591Z,98607.75
2019-05-06T14:55:02.883Z,98613.46
2019-05-06T14:57:32.277Z,98607.75
2019-05-06T14:59:59.610Z,98605.89
2019-05-06T15:02:27.662Z,98605.02
2019-05-06T15:04:55.150Z,98611.06
2019-05-06T15:07:22.657Z,98608.77
2019-05-06T15:09:58.420Z,98609.95
2019-05-06T15:12:19.388Z,98610.20
2019-05-06T15:14:46.876Z,98605.14
2019-05-06T15:17:14.570Z,98610.12
2019-05-06T15:19:42.987Z,98606.16
2019-05-06T15:22:12.826Z,98611.53
2019-05-06T15:24:42.438Z,98611.11
2019-05-06T15:27:09.196Z,98603.57
2019-05-06T15:29:36.715Z,98608.27
2019-05-06T15:32:08.853Z,98603.61
2019-05-06T15:34:56.411Z,98606.84
2019-05-06T15:37:25.693Z,98605.56
2019-05-06T15:39:53.189Z,98601.81
2019-05-06T15:42:22.432Z,98605.41
2019-05-06T15:44:50.235Z,98599.95
2019-05-06T15:47:17.731Z,98604.55
2019-05-06T15:49:45.229Z,98604.66
2019-05-06T15:52:12.720Z,98600.27
2019-05-06T15:54:40.228Z,98604.48
2019-05-06T15:57:07.726Z,98602.47
2019-05-06T15:59:36.078Z,98600.20
2019-05-06T16:02:03.572Z,98601.73
2019-05-06T16:04:32.544Z,98598.28
2019-05-06T16:07:02.378Z,98597.14
2019-05-06T16:09:29.679Z,98595.23
2019-05-06T16:11:57.344Z,98603.97
2019-05-06T16:14:25.157Z,98606.59
2019-05-06T16:16:52.967Z,98600.06
2019-05-06T16:19:22.787Z,98596.39
2019-05-06T16:21:52.131Z,98602.84
2019-05-06T16:24:20.732Z,98600.91
2019-05-06T16:26:48.228Z,98608.59
2019-05-06T16:29:15.724Z,98601.92
2019-05-06T16:31:43.220Z,98598.44
2019-05-06T16:34:12.059Z,98600.20
2019-05-06T16:36:42.891Z,98601.55
2019-05-06T16:39:09.843Z,98592.91
2019-05-06T16:41:37.354Z,98593.20
2019-05-06T16:44:04.861Z,98588.95
2019-05-06T16:46:34.217Z,98587.01
2019-05-06T16:49:02.379Z,98581.66
2019-05-06T16:51:33.039Z,98593.42
2019-05-06T16:54:02.114Z,98594.56
2019-05-06T16:56:33.263Z,98595.48
2019-05-06T16:59:03.041Z,98589.13
2019-05-06T17:01:34.546Z,98595.80
2019-05-06T17:04:03.242Z,98583.34
2019-05-06T17:06:33.219Z,98585.47
2019-05-06T17:09:16.933Z,98586.39
2019-05-06T17:11:33.686Z,98588.70
2019-05-06T17:13:59.220Z,98593.61
2019-05-06T17:16:26.781Z,98589.20
2019-05-06T17:18:57.621Z,98589.59
2019-05-06T17:21:25.136Z,98597.39
2019-05-06T17:23:52.712Z,98596.27
2019-05-06T17:26:22.002Z,98599.37
2019-05-06T17:28:56.234Z,98610.34
2019-05-06T17:31:36.944Z,98613.11
2019-05-06T17:34:12.875Z,98622.37
2019-05-06T17:36:42.113Z,98631.80
2019-05-06T17:39:11.190Z,98637.70
2019-05-06T17:41:46.048Z,98637.45
2019-05-06T17:44:09.348Z,98632.45
2019-05-06T17:46:47.704Z,98635.42
2019-05-06T17:49:16.869Z,98640.79
2019-05-06T17:52:04.211Z,98643.36
2019-05-06T17:54:32.623Z,98641.33
2019-05-06T17:57:03.864Z,98655.95
2019-05-06T17:59:29.473Z,98665.20
2019-05-06T18:01:58.619Z,98666.61
2019-05-06T18:04:26.121Z,98666.33
2019-05-06T18:06:54.379Z,98659.31
2019-05-06T18:09:22.429Z,98653.22
2019-05-06T18:11:58.599Z,98651.54
2019-05-06T18:14:19.253Z,98658.62
2019-05-06T18:16:46.748Z,98657.96
2019-05-06T18:19:14.243Z,98651.89
2019-05-06T18:21:41.753Z,98646.18
2019-05-06T18:24:09.861Z,98647.52
2019-05-06T18:26:38.217Z,98645.34
2019-05-06T18:29:05.710Z,98640.11
2019-05-06T18:31:33.793Z,98645.84
2019-05-06T18:34:02.985Z,98637.58
2019-05-06T18:36:31.540Z,98640.76
2019-05-06T18:38:59.284Z,98639.09
2019-05-06T18:41:29.274Z,98635.88
2019-05-06T18:43:56.005Z,98637.08
2019-05-06T18:46:23.508Z,98632.84
2019-05-06T18:48:52.443Z,98625.80
2019-05-06T18:51:22.158Z,98634.89
2019-05-06T18:53:52.177Z,98635.39
2019-05-06T18:56:18.892Z,98633.70
2019-05-06T18:58:46.376Z,98640.75
2019-05-06T19:01:13.886Z,98646.14
2019-05-06T19:03:48.786Z,98645.84
2019-05-06T19:06:16.277Z,98639.76
2019-05-06T19:08:48.638Z,98647.00
2019-05-06T19:11:17.500Z,98644.15
2019-05-06T19:13:45.088Z,98646.83
2019-05-06T19:16:12.820Z,98643.89
2019-05-06T19:18:42.592Z,98653.80
2019-05-06T19:21:10.492Z,98656.44
2019-05-06T19:23:37.982Z,98657.09
2019-05-06T19:26:05.486Z,98661.41
2019-05-06T19:28:33.653Z,98664.61
2019-05-06T19:31:03.141Z,98666.84
2019-05-06T19:33:34.159Z,98663.12
2019-05-06T19:36:02.971Z,98672.04
2019-05-06T19:38:29.761Z,98669.39
2019-05-06T19:40:57.260Z,98676.05
2019-05-06T19:43:25.527Z,98671.01
2019-05-06T19:45:53.093Z,98676.54
2019-05-06T19:48:22.198Z,98669.16
2019-05-06T19:50:52.117Z,98669.13
2019-05-06T19:53:19.128Z,98673.70
2019-05-06T19:55:47.131Z,98663.62
2019-05-06T19:58:15.435Z,98669.70
2019-05-06T20:00:43.032Z,98673.05
2019-05-06T20:03:12.274Z,98669.13
2019-05-06T20:05:54.383Z,98676.84
2019-05-06T20:08:26.611Z,98670.47
2019-05-06T20:10:56.284Z,98670.02
2019-05-06T20:13:28.078Z,98667.61
2019-05-06T20:15:55.576Z,98673.52
2019-05-06T20:18:23.075Z,98665.63
2019-05-06T20:20:52.667Z,98666.97
2019-05-06T20:23:19.839Z,98669.05
2019-05-06T20:25:47.341Z,98664.34
2019-05-06T20:28:14.835Z,98666.03
2019-05-06T20:30:42.440Z,98663.67
2019-05-06T20:33:12.283Z,98662.02
2019-05-06T20:35:39.293Z,98656.28
2019-05-06T20:38:06.796Z,98655.94
2019-05-06T20:40:35.121Z,98652.23
2019-05-06T20:43:16.659Z,98645.16
2019-05-06T20:45:34.837Z,98645.52
2019-05-06T20:48:03.051Z,98640.77
2019-05-06T20:50:32.145Z,98648.20
2019-05-06T20:52:59.520Z,98642.64
2019-05-06T20:55:27.009Z,98642.09
2019-05-06T20:57:55.185Z,98643.07
2019-05-06T21:00:22.787Z,98647.73
2019-05-06T21:02:50.284Z,98643.69
2019-05-06T21:05:17.783Z,98645.37
2019-05-06T21:07:45.289Z,98645.88
2019-05-06T21:10:12.830Z,98646.02
2019-05-06T21:12:42.222Z,98649.35
2019-05-06T21:15:10.080Z,98645.67
2019-05-06T21:17:37.586Z,98642.33
2019-05-06T21:20:05.254Z,98644.03
2019-05-06T21:22:32.773Z,98640.19
2019-05-06T21:25:02.366Z,98645.37
2019-05-06T21:27:29.553Z,98645.37
2019-05-06T21:29:57.050Z,98637.80
2019-05-06T21:32:24.548Z,98636.91
2019-05-06T21:34:52.546Z,98633.27
2019-05-06T21:37:20.179Z,98644.37
2019-05-06T21:39:47.673Z,98647.38
2019-05-06T21:42:15.177Z,98641.03
2019-05-06T21:44:42.983Z,98647.03
2019-05-06T21:47:10.644Z,98645.68
2019-05-06T21:49:38.136Z,98638.29
2019-05-06T21:52:05.646Z,98640.78
2019-05-06T21:54:33.208Z,98637.95
2019-05-06T21:57:02.718Z,98630.22
2019-05-06T21:59:29.927Z,98638.95
2019-05-06T22:01:57.433Z,98635.41
2019-05-06T22:04:24.980Z,98633.56
2019-05-06T22:06:52.822Z,98635.61
2019-05-06T22:09:22.117Z,98644.33
2019-05-06T22:11:49.548Z,98646.67
2019-05-06T22:14:17.040Z,98644.54
2019-05-06T22:16:44.537Z,98654.61
2019-05-06T22:19:12.277Z,98647.66
2019-05-06T22:21:57.557Z,98642.28
2019-05-06T22:24:43.644Z,98636.89
2019-05-06T22:27:12.306Z,98638.52
2019-05-06T22:29:42.512Z,98635.81
2019-05-06T22:32:09.532Z,98630.45
2019-05-06T22:34:37.236Z,98632.66
2019-05-06T22:37:04.776Z,98630.17
2019-05-06T22:39:34.233Z,98631.09
2019-05-06T22:42:01.486Z,98622.32
2019-05-06T22:44:29.018Z,98624.77
2019-05-06T22:46:56.552Z,98621.09
2019-05-06T22:49:24.371Z,98623.44
2019-05-06T22:51:52.219Z,98621.73
2019-05-06T22:54:19.828Z,98626.08
2019-05-06T22:56:47.319Z,98629.45
2019-05-06T22:59:14.862Z,98629.58
2019-05-06T23:01:43.983Z,98625.84
2019-05-06T23:04:12.252Z,98629.68
2019-05-06T23:06:39.749Z,98633.42
2019-05-06T23:09:07.710Z,98632.83
2019-05-06T23:11:35.260Z,98632.47
2019-05-06T23:14:02.938Z,98634.46
2019-05-06T23:16:32.925Z,98635.67
2019-05-06T23:19:02.055Z,98630.36
2019-05-06T23:21:29.228Z,98630.36
2019-05-06T23:23:56.741Z,98638.61
2019-05-06T23:26:24.504Z,98635.38
2019-05-06T23:28:52.647Z,98633.19
2019-05-06T23:31:21.974Z,98643.34
2019-05-06T23:33:50.438Z,98642.38
2019-05-06T23:36:17.919Z,98638.19
2019-05-06T23:39:05.100Z,98643.10
2019-05-06T23:41:52.845Z,98645.45
2019-05-06T23:44:45.770Z,98639.22
2019-05-06T23:47:26.249Z,98639.72
2019-05-06T23:50:12.461Z,98643.46
2019-05-06T23:52:58.260Z,98638.51
2019-05-06T23:55:44.190Z,98642.03
2019-05-06T23:58:14.524Z,98644.00
